logo
Search for airport 
image banner adimage banner adimage banner ad
image banner ad

SDBQ - Hospital Sao Mateus

Located in Fortaleza, Brazil

ICAO - SDBQ, IATA -

Data provided by Airmate  

General information

Coordinates: S3°44'30" W38°28'46"
Elevation is 413 feet MSL.
Magnetic variation is -20.728377559° East
View others Airports in Ceará

Operational data

Special qualification required
Current time UTC:
Current local time:
Weather at : SBFZ - Pinto Martins ( 7 km )
TAF: TAF SBFZ 270220Z 2706/2806 13005KT 8000 BKN020 TX31/2716Z TN26/2806Z TEMPO 2706/2710 4000 BR FEW007 BKN017 TEMPO 2712/2720 11015KT 6000 SCT020 FEW030TCU BECMG 2800/2802 14006KT TEMPO 2803/2805 6000 TS BKN017 FEW030CB RMK PGW
View NOTAMs / SUP AIP / TFR affecting this airport [VIEW]
Communications frequencies: [VIEW]

Runways:

Airport contact information

Address: Fortaleza Brazil

Satellite view of SDBQ